Time;durP1;ratioP1;P1;durP2;ratioP2;P2;SDS_P1;SDS_P2;PMS_P1;PMS_P2;Temp;Humidity;BMP_temperature;BMP_pressure;BME280_temperature;BME280_humidity;BME280_pressure;Samples;Min_cycle;Max_cycle;Signal;HPM_P1;HPM_P2
2021/12/20 00:00:00;;;;;;;2.85;2.55;;;;;;;;;;5038409;28;20224;-67
2021/12/20 00:02:25;;;;;;;2.78;2.58;;;;;;;;;;5038691;28;20200;-66
2021/12/20 00:04:52;;;;;;;3.50;2.97;;;;;;;;;;5038311;28;20213;-66
2021/12/20 00:07:18;;;;;;;3.08;2.47;;;;;;;;;;5038353;28;20178;-66
2021/12/20 00:09:43;;;;;;;2.80;2.60;;;;;;;;;;5038630;28;20189;-66
2021/12/20 00:12:09;;;;;;;3.00;2.75;;;;;;;;;;5038302;28;20173;-66
2021/12/20 00:14:34;;;;;;;2.88;2.67;;;;;;;;;;5038173;28;20198;-67
2021/12/20 00:16:59;;;;;;;2.88;2.67;;;;;;;;;;5038247;28;20636;-67
2021/12/20 00:19:25;;;;;;;2.78;2.45;;;;;;;;;;5038254;28;20174;-67
2021/12/20 00:21:51;;;;;;;3.05;2.85;;;;;;;;;;5038229;28;20178;-67
2021/12/20 00:24:18;;;;;;;3.38;2.97;;;;;;;;;;5038269;28;20175;-67
2021/12/20 00:26:44;;;;;;;3.90;3.25;;;;;;;;;;5038188;28;20174;-67
2021/12/20 00:29:09;;;;;;;2.97;2.78;;;;;;;;;;5038129;28;20173;-67
2021/12/20 00:31:34;;;;;;;3.30;3.00;;;;;;;;;;5038138;28;20189;-67
2021/12/20 00:33:59;;;;;;;3.80;3.50;;;;;;;;;;5037988;28;20682;-67
2021/12/20 00:36:27;;;;;;;3.30;3.00;;;;;;;;;;5038330;28;20198;-67
2021/12/20 00:41:36;;;;;;;4.72;3.75;;;;;;;;;;5038902;28;20269;-67
2021/12/20 00:44:01;;;;;;;3.60;3.30;;;;;;;;;;5038317;28;20198;-67
2021/12/20 00:46:26;;;;;;;3.65;3.35;;;;;;;;;;5038041;28;20162;-67
2021/12/20 00:48:52;;;;;;;5.18;3.40;;;;;;;;;;5038334;28;20636;-67
2021/12/20 00:51:17;;;;;;;3.35;3.05;;;;;;;;;;5037931;28;20185;-67
2021/12/20 00:53:42;;;;;;;3.85;3.55;;;;;;;;;;5037964;28;20170;-67
2021/12/20 00:56:08;;;;;;;4.35;3.95;;;;;;;;;;5037893;28;20194;-67
2021/12/20 00:58:35;;;;;;;3.75;3.35;;;;;;;;;;5037927;28;20162;-66
2021/12/20 01:01:01;;;;;;;3.53;3.28;;;;;;;;;;5035097;28;20597;-66
2021/12/20 01:03:29;;;;;;;3.80;3.50;;;;;;;;;;5035019;28;20178;-66
2021/12/20 01:05:55;;;;;;;3.50;3.30;;;;;;;;;;5035038;28;20202;-67
2021/12/20 01:08:21;;;;;;;3.63;3.33;;;;;;;;;;5034997;28;20621;-67
2021/12/20 01:10:50;;;;;;;3.55;3.28;;;;;;;;;;5034665;28;20174;-67
2021/12/20 01:13:17;;;;;;;4.60;3.78;;;;;;;;;;5034604;28;20175;-67
2021/12/20 01:15:50;;;;;;;4.95;3.90;;;;;;;;;;5034331;28;20629;-67
2021/12/20 01:18:16;;;;;;;3.90;3.60;;;;;;;;;;5034511;28;20165;-67
2021/12/20 01:20:42;;;;;;;3.17;2.88;;;;;;;;;;5034480;28;20203;-67
2021/12/20 01:23:07;;;;;;;3.10;2.90;;;;;;;;;;5034725;28;20202;-67
2021/12/20 01:25:33;;;;;;;3.85;3.50;;;;;;;;;;5034404;28;20220;-67
2021/12/20 01:27:58;;;;;;;3.67;3.38;;;;;;;;;;5034311;28;20170;-67
2021/12/20 01:30:25;;;;;;;5.10;3.30;;;;;;;;;;5034262;28;20180;-66
2021/12/20 01:32:50;;;;;;;3.72;3.42;;;;;;;;;;5034796;28;20689;-67
2021/12/20 01:35:16;;;;;;;3.85;3.55;;;;;;;;;;5034061;28;20202;-66
2021/12/20 01:37:42;;;;;;;4.00;3.60;;;;;;;;;;5034437;28;20636;-66
2021/12/20 01:40:09;;;;;;;3.72;3.42;;;;;;;;;;5034073;28;20181;-66
2021/12/20 01:42:36;;;;;;;4.28;3.88;;;;;;;;;;5034355;28;20528;-66
2021/12/20 01:45:03;;;;;;;3.40;3.05;;;;;;;;;;5033978;28;20718;-67
2021/12/20 01:47:32;;;;;;;3.55;3.20;;;;;;;;;;5033784;28;20205;-67
2021/12/20 01:52:46;;;;;;;4.72;3.80;;;;;;;;;;5042280;28;20320;-67
2021/12/20 01:55:14;;;;;;;4.13;3.83;;;;;;;;;;5034051;28;20616;-67
2021/12/20 01:57:40;;;;;;;4.05;3.75;;;;;;;;;;5034024;28;20178;-66
2021/12/20 02:00:09;;;;;;;3.72;3.40;;;;;;;;;;5033679;28;20711;-66
2021/12/20 02:02:34;;;;;;;5.28;3.90;;;;;;;;;;5034003;28;20173;-66
2021/12/20 02:05:11;;;;;;;4.80;4.07;;;;;;;;;;5033541;28;20179;-66
2021/12/20 02:07:50;;;;;;;3.70;3.40;;;;;;;;;;5033620;28;20158;-66
2021/12/20 02:10:16;;;;;;;3.83;3.40;;;;;;;;;;5033876;28;20300;-66
2021/12/20 02:12:41;;;;;;;4.63;4.32;;;;;;;;;;5033327;28;20660;-67
2021/12/20 02:15:07;;;;;;;5.38;4.13;;;;;;;;;;5033314;28;20209;-66
2021/12/20 02:17:32;;;;;;;4.18;3.78;;;;;;;;;;5033337;28;20200;-67
2021/12/20 02:19:58;;;;;;;4.03;3.70;;;;;;;;;;5033354;28;20170;-67
2021/12/20 02:22:23;;;;;;;4.20;3.83;;;;;;;;;;5033306;28;20190;-66
2021/12/20 02:24:49;;;;;;;4.50;4.10;;;;;;;;;;5033302;28;20211;-66
2021/12/20 02:27:15;;;;;;;4.60;3.70;;;;;;;;;;5034055;28;20225;-67
2021/12/20 02:29:56;;;;;;;5.03;4.47;;;;;;;;;;5033165;28;20670;-67
2021/12/20 02:37:51;;;;;;;4.43;3.58;;;;;;;;;;5033601;28;20766;-66
2021/12/20 02:40:18;;;;;;;4.05;3.75;;;;;;;;;;5032905;28;20249;-66
2021/12/20 02:42:44;;;;;;;4.03;3.70;;;;;;;;;;5032891;28;20249;-66
2021/12/20 02:45:14;;;;;;;4.00;3.60;;;;;;;;;;5033913;28;20265;-67
2021/12/20 02:47:41;;;;;;;4.10;3.80;;;;;;;;;;5033144;28;20162;-66
2021/12/20 02:50:07;;;;;;;3.95;3.58;;;;;;;;;;5032769;28;20253;-66
2021/12/20 02:52:32;;;;;;;4.45;3.70;;;;;;;;;;5033246;28;20289;-66
2021/12/20 02:54:58;;;;;;;5.05;3.55;;;;;;;;;;5032595;28;20301;-66
2021/12/20 02:57:23;;;;;;;4.20;3.78;;;;;;;;;;5032910;28;20177;-67
2021/12/20 02:59:48;;;;;;;4.43;4.03;;;;;;;;;;5032623;28;20252;-67
2021/12/20 03:02:14;;;;;;;4.18;3.88;;;;;;;;;;5032498;28;20228;-67
2021/12/20 03:04:39;;;;;;;4.00;3.70;;;;;;;;;;5032727;28;20258;-67
2021/12/20 03:07:07;;;;;;;3.88;3.58;;;;;;;;;;5032492;28;20174;-67
2021/12/20 03:09:37;;;;;;;3.83;3.47;;;;;;;;;;5032439;28;20174;-67
2021/12/20 03:12:03;;;;;;;3.90;3.60;;;;;;;;;;5032682;28;20228;-67
2021/12/20 03:14:42;;;;;;;3.72;3.40;;;;;;;;;;5032415;28;20237;-67
2021/12/20 03:17:08;;;;;;;3.63;3.33;;;;;;;;;;5032450;28;20157;-67
2021/12/20 03:19:34;;;;;;;3.25;3.05;;;;;;;;;;5032595;28;20633;-67
2021/12/20 03:21:59;;;;;;;4.43;3.47;;;;;;;;;;5032270;28;20257;-67
2021/12/20 03:24:25;;;;;;;4.97;3.40;;;;;;;;;;5031687;28;20175;-67
2021/12/20 03:26:50;;;;;;;4.20;3.80;;;;;;;;;;5032773;28;20186;-66
2021/12/20 03:29:16;;;;;;;3.55;3.35;;;;;;;;;;5032317;28;20253;-67
2021/12/20 03:31:41;;;;;;;3.78;3.47;;;;;;;;;;5032095;28;20177;-67
2021/12/20 03:34:07;;;;;;;3.80;3.28;;;;;;;;;;5032031;28;20193;-66
2021/12/20 03:36:32;;;;;;;3.60;3.30;;;;;;;;;;5032297;28;20223;-65
2021/12/20 03:38:58;;;;;;;4.22;3.70;;;;;;;;;;5032337;28;20171;-66
2021/12/20 03:41:23;;;;;;;3.63;3.40;;;;;;;;;;5032025;28;20746;-65
2021/12/20 03:43:48;;;;;;;3.38;3.17;;;;;;;;;;5032250;28;20655;-66
2021/12/20 03:46:14;;;;;;;3.63;3.38;;;;;;;;;;5032214;28;20210;-66
2021/12/20 03:48:39;;;;;;;3.42;3.13;;;;;;;;;;5031942;28;20660;-66
2021/12/20 03:51:04;;;;;;;4.00;3.70;;;;;;;;;;5031937;28;20167;-67
2021/12/20 03:53:30;;;;;;;3.38;3.13;;;;;;;;;;5031907;28;20170;-66
2021/12/20 03:55:56;;;;;;;3.45;3.20;;;;;;;;;;5032108;28;20194;-66
2021/12/20 03:58:21;;;;;;;3.28;3.08;;;;;;;;;;5031957;28;20216;-67
2021/12/20 04:00:47;;;;;;;3.80;3.50;;;;;;;;;;5032141;28;20647;-66
2021/12/20 04:03:14;;;;;;;3.95;3.65;;;;;;;;;;5031826;28;20197;-67
2021/12/20 04:05:39;;;;;;;4.07;3.67;;;;;;;;;;5031852;28;20228;-67
2021/12/20 04:08:04;;;;;;;3.70;3.40;;;;;;;;;;5032071;28;20175;-66
2021/12/20 04:10:30;;;;;;;3.75;3.47;;;;;;;;;;5031749;28;20171;-67
2021/12/20 04:12:55;;;;;;;3.88;3.47;;;;;;;;;;5031740;28;20648;-66
2021/12/20 04:15:20;;;;;;;3.53;3.33;;;;;;;;;;5031571;28;20201;-67
2021/12/20 04:17:46;;;;;;;3.47;3.22;;;;;;;;;;5031722;28;20678;-67
2021/12/20 04:20:11;;;;;;;3.67;3.38;;;;;;;;;;5031705;28;20166;-67
2021/12/20 04:22:36;;;;;;;3.80;3.50;;;;;;;;;;5031641;28;20590;-65
2021/12/20 04:25:03;;;;;;;3.28;3.08;;;;;;;;;;5031647;28;20170;-66
2021/12/20 04:27:28;;;;;;;4.05;3.65;;;;;;;;;;5031538;28;20186;-66
2021/12/20 04:29:54;;;;;;;4.15;3.75;;;;;;;;;;5031537;28;20666;-66
2021/12/20 04:32:20;;;;;;;4.13;3.72;;;;;;;;;;5031814;28;20175;-66
2021/12/20 04:34:45;;;;;;;4.85;3.78;;;;;;;;;;5031417;28;20205;-66
2021/12/20 04:37:10;;;;;;;4.28;3.58;;;;;;;;;;5034654;28;20166;-66
2021/12/20 04:39:36;;;;;;;3.72;3.53;;;;;;;;;;5035234;28;20163;-67
2021/12/20 04:42:01;;;;;;;5.72;4.47;;;;;;;;;;5035435;28;20182;-66
2021/12/20 04:44:26;;;;;;;5.43;4.28;;;;;;;;;;5035445;28;20186;-66
2021/12/20 04:46:52;;;;;;;3.83;3.53;;;;;;;;;;5035114;28;20169;-66
2021/12/20 04:49:17;;;;;;;4.68;3.90;;;;;;;;;;5035373;28;20202;-66
2021/12/20 04:51:42;;;;;;;5.88;4.00;;;;;;;;;;5035257;28;20261;-66
2021/12/20 04:54:08;;;;;;;4.70;4.30;;;;;;;;;;5034915;28;20175;-67
2021/12/20 04:56:33;;;;;;;6.18;3.72;;;;;;;;;;5035168;28;20202;-67
2021/12/20 04:58:58;;;;;;;3.90;3.58;;;;;;;;;;5035157;28;20192;-66
2021/12/20 05:01:24;;;;;;;4.60;4.20;;;;;;;;;;5034802;28;20171;-66
2021/12/20 05:03:49;;;;;;;4.65;4.07;;;;;;;;;;5034731;28;20636;-66
2021/12/20 05:06:14;;;;;;;4.40;4.00;;;;;;;;;;5034769;28;20181;-66
2021/12/20 05:08:48;;;;;;;4.00;3.70;;;;;;;;;;5034688;28;20179;-66
2021/12/20 05:11:13;;;;;;;4.20;3.75;;;;;;;;;;5034688;28;20158;-67
2021/12/20 05:13:38;;;;;;;4.00;3.53;;;;;;;;;;5034899;28;20174;-66
2021/12/20 05:16:04;;;;;;;3.78;3.47;;;;;;;;;;5034650;28;20198;-66
2021/12/20 05:18:29;;;;;;;4.00;3.70;;;;;;;;;;5034492;28;20192;-66
2021/12/20 05:20:55;;;;;;;4.30;3.90;;;;;;;;;;5034500;28;20169;-67
2021/12/20 05:23:20;;;;;;;4.80;4.30;;;;;;;;;;5034465;28;20583;-66
2021/12/20 05:25:45;;;;;;;4.40;4.00;;;;;;;;;;5034982;28;20173;-66
2021/12/20 05:28:11;;;;;;;4.20;3.70;;;;;;;;;;5034318;28;20174;-66
2021/12/20 05:30:37;;;;;;;4.57;4.13;;;;;;;;;;5034610;28;20612;-66
2021/12/20 05:33:02;;;;;;;4.20;3.80;;;;;;;;;;5034541;28;20214;-66
2021/12/20 05:35:27;;;;;;;4.15;3.75;;;;;;;;;;5034016;28;20614;-66
2021/12/20 05:37:54;;;;;;;4.00;3.70;;;;;;;;;;5034416;28;20206;-66
2021/12/20 05:40:20;;;;;;;4.10;3.80;;;;;;;;;;5034388;28;20655;-66
2021/12/20 05:42:45;;;;;;;3.75;3.35;;;;;;;;;;5034093;28;20201;-66
2021/12/20 05:45:11;;;;;;;3.55;3.25;;;;;;;;;;5034051;28;20162;-66
2021/12/20 05:47:36;;;;;;;4.32;3.72;;;;;;;;;;5033523;28;20175;-66
2021/12/20 05:50:03;;;;;;;3.97;3.58;;;;;;;;;;5034743;28;20178;-66
2021/12/20 05:52:28;;;;;;;4.10;3.75;;;;;;;;;;5034423;28;20251;-66
2021/12/20 05:54:53;;;;;;;3.95;3.65;;;;;;;;;;5033814;28;20692;-66
2021/12/20 05:57:18;;;;;;;3.88;3.58;;;;;;;;;;5034110;28;20181;-66
2021/12/20 05:59:44;;;;;;;4.03;3.65;;;;;;;;;;5034009;28;20167;-66
2021/12/20 06:02:09;;;;;;;3.38;3.17;;;;;;;;;;5033982;28;20253;-66
2021/12/20 06:04:34;;;;;;;4.00;3.60;;;;;;;;;;5033655;28;20174;-67
2021/12/20 06:07:00;;;;;;;4.25;3.92;;;;;;;;;;5033905;28;20621;-66
2021/12/20 06:09:25;;;;;;;3.85;3.45;;;;;;;;;;5033654;28;20236;-66
2021/12/20 06:11:51;;;;;;;4.35;3.90;;;;;;;;;;5033532;28;20659;-67
2021/12/20 06:14:16;;;;;;;3.95;3.65;;;;;;;;;;5033903;28;20240;-67
2021/12/20 06:16:41;;;;;;;4.40;4.00;;;;;;;;;;5033721;28;20178;-66
2021/12/20 06:19:07;;;;;;;3.17;2.97;;;;;;;;;;5033390;28;20178;-67
2021/12/20 06:21:33;;;;;;;3.35;3.05;;;;;;;;;;5033630;28;20248;-66
2021/12/20 06:23:58;;;;;;;3.58;3.38;;;;;;;;;;5033311;28;20628;-66
2021/12/20 06:26:23;;;;;;;2.72;2.53;;;;;;;;;;5032049;28;20710;-66
2021/12/20 06:28:50;;;;;;;4.28;3.40;;;;;;;;;;5033124;28;20210;-66
2021/12/20 06:31:15;;;;;;;3.15;2.85;;;;;;;;;;5033424;28;20221;-66
2021/12/20 06:33:40;;;;;;;3.03;2.83;;;;;;;;;;5032876;28;20230;-66
2021/12/20 06:36:06;;;;;;;3.53;3.10;;;;;;;;;;5033592;28;20194;-66
2021/12/20 06:38:32;;;;;;;3.58;3.15;;;;;;;;;;5033011;28;20225;-66
2021/12/20 06:40:57;;;;;;;18.98;10.63;;;;;;;;;;5032915;28;20663;-66
2021/12/20 06:43:23;;;;;;;5.57;4.53;;;;;;;;;;5032936;28;20175;-68
2021/12/20 06:45:49;;;;;;;10.90;5.97;;;;;;;;;;5033115;28;20178;-66
2021/12/20 06:48:14;;;;;;;3.17;2.92;;;;;;;;;;5032831;28;20258;-67
2021/12/20 06:50:39;;;;;;;3.30;3.10;;;;;;;;;;5033045;28;20596;-66
2021/12/20 06:53:08;;;;;;;3.33;3.03;;;;;;;;;;5032716;28;20171;-66
2021/12/20 06:55:34;;;;;;;6.35;4.63;;;;;;;;;;5032907;28;20210;-66
2021/12/20 06:57:59;;;;;;;7.38;6.03;;;;;;;;;;5032153;28;20166;-66
2021/12/20 07:00:25;;;;;;;4.20;3.90;;;;;;;;;;5032230;28;20632;-66
2021/12/20 07:02:50;;;;;;;4.45;4.05;;;;;;;;;;5032842;28;20198;-66
2021/12/20 07:05:15;;;;;;;2.47;2.35;;;;;;;;;;5032609;28;20197;-67
2021/12/20 07:07:41;;;;;;;2.90;2.70;;;;;;;;;;5032483;28;20174;-66
2021/12/20 07:10:07;;;;;;;5.35;4.85;;;;;;;;;;5032433;28;20197;-67
2021/12/20 07:12:35;;;;;;;2.80;2.60;;;;;;;;;;5031103;28;20224;-65
2021/12/20 07:15:01;;;;;;;2.30;2.20;;;;;;;;;;5032132;28;20296;-66
2021/12/20 07:17:26;;;;;;;2.78;2.58;;;;;;;;;;5032552;28;20206;-66
2021/12/20 07:19:51;;;;;;;3.13;2.53;;;;;;;;;;5032325;28;20166;-67
2021/12/20 07:22:16;;;;;;;3.03;2.60;;;;;;;;;;5032236;28;20171;-67
2021/12/20 07:24:42;;;;;;;3.10;2.90;;;;;;;;;;5032535;28;20166;-66
2021/12/20 07:27:08;;;;;;;2.70;2.50;;;;;;;;;;5032157;28;20174;-66
2021/12/20 07:29:33;;;;;;;4.15;3.75;;;;;;;;;;5032118;28;20177;-66
2021/12/20 07:31:58;;;;;;;2.08;1.92;;;;;;;;;;5032434;28;20320;-66
2021/12/20 07:34:23;;;;;;;2.10;2.00;;;;;;;;;;5031998;28;20204;-65
2021/12/20 07:36:50;;;;;;;1.98;1.65;;;;;;;;;;5032058;28;20166;-66
2021/12/20 07:39:16;;;;;;;2.05;1.95;;;;;;;;;;5033085;28;20202;-66
2021/12/20 07:41:41;;;;;;;3.13;2.72;;;;;;;;;;5031970;28;20551;-66
2021/12/20 07:44:06;;;;;;;2.00;1.90;;;;;;;;;;5031941;28;20177;-67
2021/12/20 07:46:31;;;;;;;2.47;2.35;;;;;;;;;;5033030;28;20202;-66
2021/12/20 07:48:57;;;;;;;2.20;2.08;;;;;;;;;;5032179;28;20167;-66
2021/12/20 07:51:23;;;;;;;2.65;2.45;;;;;;;;;;5031910;28;20252;-66
2021/12/20 07:53:48;;;;;;;1.98;1.67;;;;;;;;;;5031813;28;20186;-66
2021/12/20 07:56:13;;;;;;;1.60;1.50;;;;;;;;;;5032126;28;20190;-66
2021/12/20 07:58:39;;;;;;;2.17;2.08;;;;;;;;;;5031902;28;20166;-66
2021/12/20 08:01:04;;;;;;;1.75;1.65;;;;;;;;;;5031834;28;20227;-66
2021/12/20 08:03:30;;;;;;;1.83;1.73;;;;;;;;;;5031784;28;20170;-66
2021/12/20 08:05:55;;;;;;;1.50;1.40;;;;;;;;;;5032067;28;20170;-66
2021/12/20 08:08:20;;;;;;;2.15;1.70;;;;;;;;;;5031790;28;20183;-66
2021/12/20 08:10:45;;;;;;;1.67;1.58;;;;;;;;;;5034173;28;20563;-66
2021/12/20 08:13:12;;;;;;;1.75;1.65;;;;;;;;;;5035753;28;20262;-66
2021/12/20 08:15:37;;;;;;;2.45;2.33;;;;;;;;;;5035868;28;20205;-66
2021/12/20 08:18:03;;;;;;;4.35;3.30;;;;;;;;;;5035821;28;20167;-66
2021/12/20 08:20:29;;;;;;;2.90;2.70;;;;;;;;;;5035876;28;20181;-66
2021/12/20 08:22:54;;;;;;;1.70;1.60;;;;;;;;;;5035487;28;20667;-66
2021/12/20 08:25:19;;;;;;;2.42;2.22;;;;;;;;;;5035837;28;20265;-67
2021/12/20 08:27:45;;;;;;;1.60;1.50;;;;;;;;;;5035543;28;20644;-67
2021/12/20 08:30:10;;;;;;;1.60;1.30;;;;;;;;;;5035410;28;20622;-67
2021/12/20 08:32:39;;;;;;;1.65;1.55;;;;;;;;;;5035405;28;20202;-66
2021/12/20 08:35:05;;;;;;;4.55;4.18;;;;;;;;;;5035182;28;20234;-66
2021/12/20 08:37:31;;;;;;;1.42;1.38;;;;;;;;;;5035336;28;20703;-67
2021/12/20 08:39:56;;;;;;;2.88;2.67;;;;;;;;;;5035290;28;20202;-67
2021/12/20 08:42:21;;;;;;;2.50;2.10;;;;;;;;;;5035245;28;20202;-67
2021/12/20 08:44:47;;;;;;;2.00;1.90;;;;;;;;;;5035040;28;20189;-67
2021/12/20 08:47:13;;;;;;;2.13;2.03;;;;;;;;;;5035327;28;20178;-67
2021/12/20 08:49:38;;;;;;;1.50;1.33;;;;;;;;;;5035348;28;20625;-68
2021/12/20 08:52:03;;;;;;;1.95;1.85;;;;;;;;;;5035041;28;20182;-67
2021/12/20 08:54:29;;;;;;;1.85;1.75;;;;;;;;;;5034881;28;20171;-67
2021/12/20 08:56:55;;;;;;;2.00;1.90;;;;;;;;;;5034884;28;20292;-66
2021/12/20 08:59:20;;;;;;;1.80;1.50;;;;;;;;;;5034865;28;20175;-66
2021/12/20 09:01:46;;;;;;;2.00;1.90;;;;;;;;;;5035415;28;20166;-66
2021/12/20 09:04:11;;;;;;;1.58;1.45;;;;;;;;;;5035103;28;20237;-66
2021/12/20 09:06:39;;;;;;;1.48;1.40;;;;;;;;;;5034756;28;20653;-66
2021/12/20 09:09:05;;;;;;;1.65;1.63;;;;;;;;;;5034961;28;20648;-66
2021/12/20 09:11:30;;;;;;;1.85;1.75;;;;;;;;;;5034945;28;20178;-66
2021/12/20 09:13:56;;;;;;;3.22;2.95;;;;;;;;;;5034553;28;20174;-66
2021/12/20 09:16:21;;;;;;;2.60;2.00;;;;;;;;;;5035013;28;20202;-66
2021/12/20 09:18:48;;;;;;;2.45;2.25;;;;;;;;;;5034553;28;20167;-66
2021/12/20 09:21:13;;;;;;;2.03;1.90;;;;;;;;;;5034045;28;20209;-66
2021/12/20 09:23:40;;;;;;;1.77;1.67;;;;;;;;;;5034607;28;20197;-66
2021/12/20 09:26:05;;;;;;;1.50;1.40;;;;;;;;;;5034451;28;20171;-66
2021/12/20 09:28:31;;;;;;;4.45;2.20;;;;;;;;;;5034572;28;20257;-66
2021/12/20 09:30:56;;;;;;;2.97;2.20;;;;;;;;;;5034306;28;20178;-66
2021/12/20 09:33:22;;;;;;;2.28;2.08;;;;;;;;;;5034205;28;20174;-66
2021/12/20 09:35:49;;;;;;;1.65;1.63;;;;;;;;;;5034459;28;20640;-67
2021/12/20 09:38:17;;;;;;;2.10;2.00;;;;;;;;;;5034735;28;20170;-66
2021/12/20 09:41:01;;;;;;;2.25;2.15;;;;;;;;;;5034385;28;20175;-66
2021/12/20 09:43:26;;;;;;;2.15;1.95;;;;;;;;;;5034374;28;20167;-66
2021/12/20 09:45:52;;;;;;;2.38;2.10;;;;;;;;;;5033950;28;20559;-66
2021/12/20 09:48:18;;;;;;;3.20;2.20;;;;;;;;;;5033919;28;20182;-66
2021/12/20 09:50:43;;;;;;;3.60;3.30;;;;;;;;;;5033966;28;20183;-66
2021/12/20 09:53:08;;;;;;;2.40;2.28;;;;;;;;;;5033737;28;20607;-65
2021/12/20 09:55:34;;;;;;;3.03;2.78;;;;;;;;;;5033799;28;20278;-66
2021/12/20 09:58:01;;;;;;;4.25;3.88;;;;;;;;;;5033825;28;20586;-67
2021/12/20 10:00:27;;;;;;;3.35;3.00;;;;;;;;;;5033732;28;20178;-66
2021/12/20 10:02:52;;;;;;;3.67;3.35;;;;;;;;;;5034006;28;20177;-67
2021/12/20 10:05:18;;;;;;;3.22;2.28;;;;;;;;;;5033921;28;20175;-66
2021/12/20 10:07:47;;;;;;;3.63;1.75;;;;;;;;;;5033656;28;20180;-66
2021/12/20 10:10:13;;;;;;;7.30;3.85;;;;;;;;;;5033618;28;20181;-66
2021/12/20 10:12:48;;;;;;;4.25;3.30;;;;;;;;;;5033495;28;20174;-65
2021/12/20 10:15:15;;;;;;;2.35;2.15;;;;;;;;;;5033574;28;20260;-67
2021/12/20 10:17:58;;;;;;;2.10;2.00;;;;;;;;;;5033658;28;20546;-66
2021/12/20 10:20:28;;;;;;;2.45;2.25;;;;;;;;;;5033951;28;20154;-67
2021/12/20 10:23:06;;;;;;;2.97;2.67;;;;;;;;;;5033869;28;20219;-66
2021/12/20 10:25:31;;;;;;;3.15;2.85;;;;;;;;;;5033342;28;20158;-67
2021/12/20 10:28:05;;;;;;;3.20;2.97;;;;;;;;;;5034296;28;20185;-67
2021/12/20 10:30:31;;;;;;;6.82;4.55;;;;;;;;;;5033174;28;20185;-66
2021/12/20 10:32:57;;;;;;;1.63;1.52;;;;;;;;;;5033340;28;20178;-67
2021/12/20 10:35:25;;;;;;;2.00;1.90;;;;;;;;;;5032935;28;20206;-67
2021/12/20 10:37:52;;;;;;;2.50;2.30;;;;;;;;;;5033332;28;20268;-67
2021/12/20 10:40:17;;;;;;;2.85;2.38;;;;;;;;;;5033007;28;20170;-67
2021/12/20 10:42:43;;;;;;;3.67;1.90;;;;;;;;;;5033189;28;20171;-66
2021/12/20 10:45:10;;;;;;;11.80;7.53;;;;;;;;;;5032913;28;20213;-66
2021/12/20 10:47:35;;;;;;;13.55;8.93;;;;;;;;;;5033110;28;20308;-67
2021/12/20 10:50:19;;;;;;;2.00;1.90;;;;;;;;;;5032856;28;20197;-66
2021/12/20 10:52:45;;;;;;;3.85;3.20;;;;;;;;;;5033019;28;20253;-66
2021/12/20 10:55:11;;;;;;;7.30;5.18;;;;;;;;;;5033218;28;20277;-66
2021/12/20 10:57:36;;;;;;;4.88;3.63;;;;;;;;;;5032675;28;20166;-67
2021/12/20 11:00:18;;;;;;;4.63;3.70;;;;;;;;;;5032644;28;20170;-66
2021/12/20 11:06:11;;;;;;;4.10;3.72;;;;;;;;;;5032550;28;20167;-66
2021/12/20 11:11:17;;;;;;;2.92;1.95;;;;;;;;;;5033076;28;20161;-66
2021/12/20 11:13:42;;;;;;;2.85;2.30;;;;;;;;;;5032343;28;20170;-66
2021/12/20 11:16:21;;;;;;;1.80;1.70;;;;;;;;;;5032339;28;20198;-66
2021/12/20 11:18:46;;;;;;;2.58;2.38;;;;;;;;;;5032358;28;20683;-66
2021/12/20 11:21:13;;;;;;;1.70;1.60;;;;;;;;;;5032552;28;20285;-66
2021/12/20 11:23:38;;;;;;;1.88;1.77;;;;;;;;;;5032506;28;20261;-66
2021/12/20 11:26:04;;;;;;;3.15;1.98;;;;;;;;;;5032226;28;20316;-66
2021/12/20 11:28:29;;;;;;;2.05;1.70;;;;;;;;;;5032422;28;20232;-66
2021/12/20 11:30:54;;;;;;;2.20;2.10;;;;;;;;;;5032059;28;20170;-66
2021/12/20 11:33:20;;;;;;;1.65;1.55;;;;;;;;;;5032280;28;20674;-67
2021/12/20 11:35:45;;;;;;;2.42;2.20;;;;;;;;;;5032053;28;20269;-67
2021/12/20 11:38:10;;;;;;;3.75;2.67;;;;;;;;;;5032548;28;20167;-67
2021/12/20 11:40:36;;;;;;;3.53;2.75;;;;;;;;;;5032271;28;20251;-67
2021/12/20 11:43:01;;;;;;;2.53;1.77;;;;;;;;;;5032281;28;20167;-67
2021/12/20 11:45:27;;;;;;;2.28;2.08;;;;;;;;;;5031509;28;20206;-65
2021/12/20 11:48:06;;;;;;;2.40;2.20;;;;;;;;;;5032221;28;20212;-66
2021/12/20 11:50:33;;;;;;;2.85;2.55;;;;;;;;;;5032246;28;20174;-66
2021/12/20 11:53:08;;;;;;;2.92;2.58;;;;;;;;;;5032596;28;20277;-66
2021/12/20 11:55:34;;;;;;;3.65;3.30;;;;;;;;;;5032117;28;20284;-66
2021/12/20 11:58:00;;;;;;;2.42;2.22;;;;;;;;;;5031890;28;20174;-67
2021/12/20 12:00:26;;;;;;;2.30;2.10;;;;;;;;;;5031848;28;20170;-66
2021/12/20 12:03:00;;;;;;;2.10;1.95;;;;;;;;;;5031791;28;20244;-66
2021/12/20 12:05:35;;;;;;;3.97;3.15;;;;;;;;;;5032014;28;20186;-66
2021/12/20 12:08:19;;;;;;;1.92;1.83;;;;;;;;;;5031804;28;20181;-67
2021/12/20 12:10:45;;;;;;;2.80;2.25;;;;;;;;;;5032023;28;20171;-66
2021/12/20 12:13:15;;;;;;;2.55;2.45;;;;;;;;;;5032025;28;20706;-66
2021/12/20 12:15:59;;;;;;;2.88;2.20;;;;;;;;;;5031533;28;20759;-66
2021/12/20 12:18:41;;;;;;;5.07;4.18;;;;;;;;;;5031761;28;20150;-67
2021/12/20 12:21:07;;;;;;;4.95;3.20;;;;;;;;;;5031995;28;20163;-67
2021/12/20 12:23:42;;;;;;;3.65;1.80;;;;;;;;;;5031918;28;20189;-67
2021/12/20 12:26:09;;;;;;;2.40;2.20;;;;;;;;;;5031957;28;20155;-66
2021/12/20 12:28:57;;;;;;;2.42;2.28;;;;;;;;;;5031821;28;20178;-67
2021/12/20 12:31:23;;;;;;;3.33;2.45;;;;;;;;;;5031573;28;20182;-67
2021/12/20 12:34:04;;;;;;;2.22;2.00;;;;;;;;;;5031686;28;20233;-67
2021/12/20 12:36:30;;;;;;;2.45;2.25;;;;;;;;;;5031771;28;20663;-67
2021/12/20 12:38:58;;;;;;;2.70;2.50;;;;;;;;;;5031486;28;20185;-67
2021/12/20 12:41:25;;;;;;;2.80;2.60;;;;;;;;;;5031756;28;20178;-67
2021/12/20 12:44:01;;;;;;;2.80;2.47;;;;;;;;;;5031467;28;20200;-66
2021/12/20 12:46:36;;;;;;;2.33;2.13;;;;;;;;;;5031444;28;20170;-66
2021/12/20 12:49:20;;;;;;;2.33;2.13;;;;;;;;;;5031726;28;20180;-66
2021/12/20 12:51:45;;;;;;;2.03;1.92;;;;;;;;;;5031341;28;20229;-66
2021/12/20 12:54:30;;;;;;;4.00;2.58;;;;;;;;;;5031400;28;20175;-67
2021/12/20 12:57:16;;;;;;;3.03;2.60;;;;;;;;;;5032497;28;20166;-67
2021/12/20 12:59:44;;;;;;;3.20;2.90;;;;;;;;;;5034914;28;20610;-67
2021/12/20 13:02:11;;;;;;;2.80;2.60;;;;;;;;;;5034934;28;20193;-67
2021/12/20 13:04:49;;;;;;;1.98;1.88;;;;;;;;;;5034901;28;20167;-67
2021/12/20 13:07:18;;;;;;;4.97;4.57;;;;;;;;;;5034772;28;20175;-67
2021/12/20 13:09:45;;;;;;;2.88;2.67;;;;;;;;;;5035022;28;20189;-65
2021/12/20 13:12:14;;;;;;;3.08;2.85;;;;;;;;;;5034687;28;20246;-66
2021/12/20 13:15:04;;;;;;;2.55;2.40;;;;;;;;;;5034678;28;20277;-67
2021/12/20 13:17:39;;;;;;;4.40;2.45;;;;;;;;;;5034591;28;20193;-66
2021/12/20 13:20:19;;;;;;;6.25;4.45;;;;;;;;;;5034853;28;20162;-66
2021/12/20 13:23:03;;;;;;;4.60;3.75;;;;;;;;;;5034818;28;20537;-66
2021/12/20 13:25:32;;;;;;;4.10;3.72;;;;;;;;;;5034623;28;20682;-66
2021/12/20 13:27:57;;;;;;;2.95;2.75;;;;;;;;;;5034438;28;20206;-66
2021/12/20 13:30:38;;;;;;;2.45;2.35;;;;;;;;;;5034582;28;20660;-66
2021/12/20 13:33:03;;;;;;;3.75;2.60;;;;;;;;;;5034304;28;20710;-66
2021/12/20 13:35:29;;;;;;;15.63;9.05;;;;;;;;;;5034013;28;20202;-67
2021/12/20 13:38:33;;;;;;;8.85;6.13;;;;;;;;;;5034469;28;20586;-66
2021/12/20 13:41:00;;;;;;;4.43;3.42;;;;;;;;;;5032296;28;20711;-66
2021/12/20 13:43:32;;;;;;;14.85;6.40;;;;;;;;;;5032021;28;20179;-67
2021/12/20 13:46:12;;;;;;;10.65;6.18;;;;;;;;;;5033037;28;20248;-67
2021/12/20 13:48:48;;;;;;;9.90;5.55;;;;;;;;;;5034098;28;20158;-67
2021/12/20 13:51:13;;;;;;;23.05;11.75;;;;;;;;;;5033943;28;20193;-67
2021/12/20 13:53:38;;;;;;;16.50;9.35;;;;;;;;;;5034114;28;20174;-67
2021/12/20 13:56:04;;;;;;;8.52;5.90;;;;;;;;;;5034147;28;20213;-65
2021/12/20 13:58:30;;;;;;;5.85;5.25;;;;;;;;;;5034060;28;20644;-66
2021/12/20 14:00:56;;;;;;;11.55;7.63;;;;;;;;;;5033803;28;20640;-67
2021/12/20 14:03:21;;;;;;;17.65;9.73;;;;;;;;;;5034286;28;20178;-67
2021/12/20 14:05:47;;;;;;;12.80;6.00;;;;;;;;;;5033654;28;20711;-67
2021/12/20 14:08:21;;;;;;;3.90;3.60;;;;;;;;;;5033224;28;20592;-67
2021/12/20 14:10:47;;;;;;;5.68;4.90;;;;;;;;;;5033633;28;20173;-67
2021/12/20 14:13:17;;;;;;;2.70;2.50;;;;;;;;;;5033541;28;20178;-66
2021/12/20 14:15:55;;;;;;;11.07;8.32;;;;;;;;;;5033450;28;20210;-66
2021/12/20 14:18:25;;;;;;;10.07;7.53;;;;;;;;;;5033755;28;20155;-67
2021/12/20 14:20:50;;;;;;;6.63;5.10;;;;;;;;;;5033738;28;20151;-66
2021/12/20 14:23:34;;;;;;;9.20;6.60;;;;;;;;;;5033625;28;20184;-66
2021/12/20 14:26:19;;;;;;;2.90;2.70;;;;;;;;;;5033551;28;20566;-66
2021/12/20 14:28:48;;;;;;;4.95;4.20;;;;;;;;;;5033538;28;20174;-66
2021/12/20 14:31:33;;;;;;;7.53;5.03;;;;;;;;;;5033444;28;20713;-66
2021/12/20 14:33:59;;;;;;;7.85;5.78;;;;;;;;;;5033382;28;20246;-66
2021/12/20 14:36:26;;;;;;;15.45;7.90;;;;;;;;;;5032997;28;20625;-67
2021/12/20 14:38:52;;;;;;;18.17;8.50;;;;;;;;;;5033577;28;20528;-66
2021/12/20 14:41:20;;;;;;;4.75;4.28;;;;;;;;;;5033296;28;20316;-67
2021/12/20 14:43:46;;;;;;;8.90;5.22;;;;;;;;;;5032972;28;20652;-66
2021/12/20 14:46:49;;;;;;;10.73;6.35;;;;;;;;;;5032926;28;20174;-66
2021/12/20 14:49:14;;;;;;;19.70;10.90;;;;;;;;;;5032678;28;20632;-66
2021/12/20 14:51:39;;;;;;;10.45;7.28;;;;;;;;;;5033027;28;20186;-67
2021/12/20 14:54:21;;;;;;;11.75;7.30;;;;;;;;;;5033033;28;20281;-67
2021/12/20 14:56:48;;;;;;;20.95;9.88;;;;;;;;;;5032565;28;20241;-66
2021/12/20 14:59:14;;;;;;;5.95;5.00;;;;;;;;;;5033234;28;20185;-66
2021/12/20 15:01:39;;;;;;;7.47;6.03;;;;;;;;;;5032933;28;20174;-66